createdAt,value
2023-03-21T00:00:07.019Z,5.16
2023-03-21T00:01:05.733Z,5.16
2023-03-21T00:02:06.055Z,5.16
2023-03-21T00:03:05.721Z,5.16
2023-03-21T00:04:05.975Z,5.15
2023-03-21T00:05:15.308Z,5.15
2023-03-21T00:06:06.938Z,5.15
2023-03-21T00:07:05.550Z,5.14
2023-03-21T00:08:05.920Z,5.13
2023-03-21T00:09:05.728Z,5.11
2023-03-21T00:10:15.450Z,5.09
2023-03-21T00:11:06.732Z,5.07
2023-03-21T00:12:05.727Z,5.04
2023-03-21T00:13:05.867Z,5.01
2023-03-21T00:14:05.735Z,4.98
2023-03-21T00:15:05.739Z,4.95
2023-03-21T00:16:12.729Z,4.91
2023-03-21T00:17:06.618Z,4.87
2023-03-21T00:18:05.785Z,4.82
2023-03-21T00:19:05.073Z,4.76
2023-03-21T00:20:05.995Z,4.70
2023-03-21T00:21:37.582Z,4.64
2023-03-21T00:22:08.802Z,4.59
2023-03-21T00:23:05.711Z,4.56
2023-03-21T00:24:05.700Z,4.53
2023-03-21T00:25:05.669Z,4.52
2023-03-21T00:26:05.674Z,4.52
2023-03-21T00:27:33.731Z,4.52
2023-03-21T00:28:08.724Z,4.51
2023-03-21T00:29:05.409Z,4.51
2023-03-21T00:30:05.598Z,4.50
2023-03-21T00:31:05.597Z,4.49
2023-03-21T00:32:05.597Z,4.48
2023-03-21T00:33:21.800Z,4.44
2023-03-21T00:34:07.287Z,4.41
2023-03-21T00:35:40.753Z,4.37
2023-03-21T00:36:07.321Z,4.33
2023-03-21T00:37:05.528Z,4.30
2023-03-21T00:38:05.513Z,4.27
2023-03-21T00:39:05.511Z,4.25
2023-03-21T00:40:07.009Z,4.23
2023-03-21T00:41:18.759Z,4.21
2023-03-21T00:42:06.462Z,4.17
2023-03-21T00:43:05.651Z,4.13
2023-03-21T00:44:05.430Z,4.09
2023-03-21T00:45:05.403Z,4.04
2023-03-21T00:46:05.416Z,4.00
2023-03-21T00:47:07.827Z,3.96
2023-03-21T00:48:05.487Z,3.92
2023-03-21T00:49:05.378Z,3.88
2023-03-21T00:50:05.321Z,3.85
2023-03-21T00:51:05.328Z,3.83
2023-03-21T00:52:15.068Z,3.82
2023-03-21T00:53:06.314Z,3.83
2023-03-21T00:54:05.287Z,3.84
2023-03-21T00:55:05.260Z,3.84
2023-03-21T00:56:05.282Z,3.85
2023-03-21T00:57:05.271Z,3.86
2023-03-21T00:58:05.245Z,3.86
2023-03-21T00:59:05.248Z,3.87
2023-03-21T01:00:05.194Z,3.88
2023-03-21T01:01:05.273Z,3.91
2023-03-21T01:02:05.263Z,3.94
2023-03-21T01:03:17.599Z,3.97
2023-03-21T01:04:06.164Z,3.99
2023-03-21T01:05:05.177Z,4.01
2023-03-21T01:06:05.149Z,4.03
2023-03-21T01:07:05.125Z,4.04
2023-03-21T01:08:17.083Z,4.04
2023-03-21T01:09:06.101Z,4.04
2023-03-21T01:10:05.071Z,4.04
2023-03-21T01:11:05.074Z,4.05
2023-03-21T01:12:05.772Z,4.07
2023-03-21T01:13:05.049Z,4.07
2023-03-21T01:14:20.956Z,4.05
2023-03-21T01:15:05.332Z,4.05
2023-03-21T01:16:04.788Z,4.04
2023-03-21T01:17:04.782Z,4.03
2023-03-21T01:18:04.776Z,4.04
2023-03-21T01:19:07.083Z,4.07
2023-03-21T01:20:04.935Z,4.10
2023-03-21T01:21:04.785Z,4.12
2023-03-21T01:22:04.937Z,4.14
2023-03-21T01:23:04.806Z,4.15
2023-03-21T01:24:04.908Z,4.17
2023-03-21T01:25:21.053Z,4.18
2023-03-21T01:26:05.883Z,4.20
2023-03-21T01:27:04.863Z,4.22
2023-03-21T01:28:04.850Z,4.24
2023-03-21T01:29:04.695Z,4.26
2023-03-21T01:30:11.305Z,4.28
2023-03-21T01:31:05.718Z,4.30
2023-03-21T01:32:04.800Z,4.32
2023-03-21T01:33:04.700Z,4.34
2023-03-21T01:34:04.696Z,4.36
2023-03-21T01:35:04.339Z,4.38
2023-03-21T01:36:12.710Z,4.41
2023-03-21T01:37:06.494Z,4.42
2023-03-21T01:38:05.707Z,4.44
2023-03-21T01:39:04.719Z,4.45
2023-03-21T01:40:05.416Z,4.48
2023-03-21T01:41:17.115Z,4.49
2023-03-21T01:42:05.676Z,4.50
2023-03-21T01:43:04.654Z,4.51
2023-03-21T01:44:04.631Z,4.51
2023-03-21T01:45:04.594Z,4.51
2023-03-21T01:46:04.686Z,4.51
2023-03-21T01:47:11.039Z,4.52
2023-03-21T01:48:05.662Z,4.52
2023-03-21T01:49:04.561Z,4.53
2023-03-21T01:50:04.533Z,4.53
2023-03-21T01:51:04.542Z,4.53
2023-03-21T01:52:12.809Z,4.53
2023-03-21T01:53:05.506Z,4.53
2023-03-21T01:54:04.497Z,4.53
2023-03-21T01:55:04.469Z,4.52
2023-03-21T01:56:04.466Z,4.51
2023-03-21T01:57:04.457Z,4.50
2023-03-21T01:58:07.053Z,4.48
2023-03-21T01:59:04.425Z,4.47
2023-03-21T02:00:04.394Z,4.45
2023-03-21T02:01:04.525Z,4.44
2023-03-21T02:02:04.391Z,4.43
2023-03-21T02:03:13.587Z,4.42
2023-03-21T02:04:05.618Z,4.41
2023-03-21T02:05:04.351Z,4.39
2023-03-21T02:06:04.325Z,4.38
2023-03-21T02:07:04.338Z,4.37
2023-03-21T02:08:04.313Z,4.37
2023-03-21T02:09:04.291Z,4.37
2023-03-21T02:10:04.271Z,4.37
2023-03-21T02:11:04.241Z,4.37
2023-03-21T02:12:04.248Z,4.37
2023-03-21T02:13:04.229Z,4.38
2023-03-21T02:14:06.719Z,4.38
2023-03-21T02:15:04.207Z,4.38
2023-03-21T02:16:04.166Z,4.38
2023-03-21T02:17:04.175Z,4.39
2023-03-21T02:18:04.166Z,4.39
2023-03-21T02:19:04.146Z,4.40
2023-03-21T02:20:04.134Z,4.40
2023-03-21T02:21:04.357Z,4.41
2023-03-21T02:22:03.388Z,4.42
2023-03-21T02:23:03.424Z,4.42
2023-03-21T02:24:04.086Z,4.42
2023-03-21T02:25:10.646Z,4.42
2023-03-21T02:26:05.031Z,4.41
2023-03-21T02:27:04.689Z,4.40
2023-03-21T02:28:04.029Z,4.39
2023-03-21T02:29:04.017Z,4.37
2023-03-21T02:30:03.683Z,4.34
2023-03-21T02:31:03.730Z,4.31
2023-03-21T02:32:17.927Z,4.28
2023-03-21T02:33:04.786Z,4.25
2023-03-21T02:34:03.964Z,4.24
2023-03-21T02:35:03.839Z,4.24
2023-03-21T02:36:13.554Z,4.22
2023-03-21T02:37:04.899Z,4.20
2023-03-21T02:38:03.849Z,4.15
2023-03-21T02:39:03.884Z,4.11
2023-03-21T02:40:03.866Z,4.08
2023-03-21T02:41:10.117Z,4.07
2023-03-21T02:42:04.841Z,4.05
2023-03-21T02:43:04.285Z,4.04
2023-03-21T02:44:04.538Z,4.05
2023-03-21T02:45:04.516Z,4.07
2023-03-21T02:46:04.561Z,4.09
2023-03-21T02:47:06.316Z,4.09
2023-03-21T02:48:04.537Z,4.09
2023-03-21T02:49:03.857Z,4.08
2023-03-21T02:50:03.731Z,4.06
2023-03-21T02:51:04.455Z,4.04
2023-03-21T02:52:14.532Z,4.02
2023-03-21T02:53:04.468Z,4.00
2023-03-21T02:54:29.991Z,3.97
2023-03-21T02:55:04.671Z,3.95
2023-03-21T02:56:03.646Z,3.94
2023-03-21T02:57:03.641Z,3.93
2023-03-21T02:58:12.314Z,3.91
2023-03-21T02:59:03.898Z,3.88
2023-03-21T03:00:15.604Z,3.84
2023-03-21T03:01:05.344Z,3.82
2023-03-21T03:02:03.575Z,3.81
2023-03-21T03:03:09.891Z,3.81
2023-03-21T03:04:04.580Z,3.81
2023-03-21T03:05:11.563Z,3.78
2023-03-21T03:06:04.499Z,3.76
2023-03-21T03:07:03.513Z,3.74
2023-03-21T03:08:03.510Z,3.73
2023-03-21T03:09:03.479Z,3.73
2023-03-21T03:10:03.466Z,3.72
2023-03-21T03:11:03.426Z,3.71
2023-03-21T03:12:03.448Z,3.70
2023-03-21T03:13:03.437Z,3.67
2023-03-21T03:14:21.209Z,3.64
2023-03-21T03:15:04.500Z,3.61
2023-03-21T03:16:03.391Z,3.57
2023-03-21T03:17:03.384Z,3.52
2023-03-21T03:18:03.366Z,3.48
2023-03-21T03:19:03.355Z,3.46
2023-03-21T03:20:15.124Z,3.47
2023-03-21T03:21:04.313Z,3.50
2023-03-21T03:22:03.314Z,3.51
2023-03-21T03:23:03.296Z,3.51
2023-03-21T03:24:03.299Z,3.51
2023-03-21T03:25:17.768Z,3.50
2023-03-21T03:26:04.268Z,3.48
2023-03-21T03:27:03.235Z,3.46
2023-03-21T03:28:03.236Z,3.44
2023-03-21T03:29:03.218Z,3.41
2023-03-21T03:30:03.944Z,3.39
2023-03-21T03:31:09.550Z,3.37
2023-03-21T03:32:04.228Z,3.36
2023-03-21T03:33:03.168Z,3.36
2023-03-21T03:34:02.886Z,3.38
2023-03-21T03:35:03.148Z,3.39
2023-03-21T03:36:06.595Z,3.40
2023-03-21T03:37:02.901Z,3.42
2023-03-21T03:38:02.884Z,3.45
2023-03-21T03:39:02.885Z,3.46
2023-03-21T03:40:03.079Z,3.45
2023-03-21T03:41:03.062Z,3.44
2023-03-21T03:42:18.264Z,3.43
2023-03-21T03:43:04.045Z,3.42
2023-03-21T03:44:02.293Z,3.42
2023-03-21T03:45:03.014Z,3.42
2023-03-21T03:46:03.000Z,3.40
2023-03-21T03:47:02.366Z,3.40
2023-03-21T03:48:03.013Z,3.39
2023-03-21T03:49:02.955Z,3.37
2023-03-21T03:50:02.479Z,3.35
2023-03-21T03:51:02.513Z,3.32
2023-03-21T03:52:02.894Z,3.29
2023-03-21T03:53:07.086Z,3.27
2023-03-21T03:54:03.897Z,3.25
2023-03-21T03:55:02.646Z,3.24
2023-03-21T03:56:02.874Z,3.23
2023-03-21T03:57:02.840Z,3.23
2023-03-21T03:58:04.650Z,3.22
2023-03-21T03:59:02.836Z,3.19
2023-03-21T04:00:02.821Z,3.16
2023-03-21T04:01:03.516Z,3.14
2023-03-21T04:02:02.822Z,3.11
2023-03-21T04:03:03.607Z,3.09
2023-03-21T04:04:12.562Z,3.06
2023-03-21T04:05:03.757Z,3.03
2023-03-21T04:06:03.466Z,3.00
2023-03-21T04:07:03.449Z,2.99
2023-03-21T04:08:03.435Z,2.99
2023-03-21T04:09:07.904Z,3.00
2023-03-21T04:10:04.399Z,3.02
2023-03-21T04:11:02.676Z,3.04
2023-03-21T04:12:02.634Z,3.06
2023-03-21T04:13:02.662Z,3.06
2023-03-21T04:14:02.622Z,3.05
2023-03-21T04:15:10.064Z,3.02
2023-03-21T04:16:03.637Z,2.98
2023-03-21T04:17:02.570Z,2.94
2023-03-21T04:18:01.927Z,2.90
2023-03-21T04:19:02.560Z,2.89
2023-03-21T04:20:11.357Z,2.90
2023-03-21T04:21:03.552Z,2.91
2023-03-21T04:22:02.499Z,2.91
2023-03-21T04:23:02.516Z,2.90
2023-03-21T04:24:02.495Z,2.91
2023-03-21T04:25:02.490Z,2.91
2023-03-21T04:26:02.483Z,2.91
2023-03-21T04:27:03.186Z,2.91
2023-03-21T04:28:02.437Z,2.91
2023-03-21T04:29:02.435Z,2.92
2023-03-21T04:30:02.406Z,2.92
2023-03-21T04:31:08.902Z,2.92
2023-03-21T04:32:03.461Z,2.91
2023-03-21T04:33:02.367Z,2.89
2023-03-21T04:34:02.359Z,2.86
2023-03-21T04:35:02.378Z,2.85
2023-03-21T04:36:02.352Z,2.84
2023-03-21T04:37:02.298Z,2.82
2023-03-21T04:38:02.322Z,2.80
2023-03-21T04:39:02.303Z,2.78
2023-03-21T04:40:02.270Z,2.76
2023-03-21T04:41:02.281Z,2.78
2023-03-21T04:42:02.261Z,2.82
2023-03-21T04:43:02.218Z,2.87
2023-03-21T04:44:02.221Z,2.91
2023-03-21T04:45:02.216Z,2.94
2023-03-21T04:46:01.974Z,2.97
2023-03-21T04:47:01.934Z,2.99
2023-03-21T04:48:01.981Z,3.01
2023-03-21T04:49:01.937Z,3.01
2023-03-21T04:50:01.534Z,3.01
2023-03-21T04:51:02.126Z,3.00
2023-03-21T04:52:02.123Z,3.00
2023-03-21T04:53:02.073Z,2.99
2023-03-21T04:54:02.087Z,2.99
2023-03-21T04:55:01.949Z,2.98
2023-03-21T04:56:01.947Z,2.98
2023-03-21T04:57:02.042Z,2.99
2023-03-21T04:58:01.952Z,2.98
2023-03-21T04:59:02.030Z,2.97
2023-03-21T05:00:02.027Z,2.96
2023-03-21T05:01:01.979Z,2.94
2023-03-21T05:02:01.416Z,2.93
2023-03-21T05:03:01.953Z,2.94
2023-03-21T05:04:02.713Z,2.95
2023-03-21T05:05:02.657Z,2.96
2023-03-21T05:06:01.943Z,2.96
2023-03-21T05:07:01.940Z,2.96
2023-03-21T05:08:01.887Z,2.97
2023-03-21T05:09:01.918Z,3.00
2023-03-21T05:10:02.634Z,3.02
2023-03-21T05:11:01.860Z,3.02
2023-03-21T05:12:01.864Z,3.03
2023-03-21T05:13:02.583Z,3.04
2023-03-21T05:14:01.824Z,3.06
2023-03-21T05:15:01.808Z,3.06
2023-03-21T05:16:01.800Z,3.05
2023-03-21T05:17:01.854Z,3.05
2023-03-21T05:18:01.559Z,3.05
2023-03-21T05:19:01.758Z,3.05
2023-03-21T05:20:01.747Z,3.04
2023-03-21T05:21:01.749Z,3.04
2023-03-21T05:22:01.724Z,3.03
2023-03-21T05:23:01.686Z,3.02
2023-03-21T05:24:01.687Z,3.02
2023-03-21T05:25:01.673Z,3.01
2023-03-21T05:26:01.666Z,3.01
2023-03-21T05:27:01.701Z,3.00
2023-03-21T05:28:01.613Z,3.00
2023-03-21T05:29:01.623Z,2.99
2023-03-21T05:30:02.326Z,2.99
2023-03-21T05:31:01.609Z,2.99
2023-03-21T05:32:01.592Z,2.99
2023-03-21T05:33:01.549Z,3.00
2023-03-21T05:34:01.561Z,3.01
2023-03-21T05:35:01.560Z,3.02
2023-03-21T05:36:01.569Z,3.04
2023-03-21T05:37:01.515Z,3.06
2023-03-21T05:38:00.789Z,3.09
2023-03-21T05:39:01.485Z,3.11
2023-03-21T05:40:01.468Z,3.12
2023-03-21T05:41:01.478Z,3.13
2023-03-21T05:42:01.461Z,3.14
2023-03-21T05:43:01.426Z,3.16
2023-03-21T05:44:01.425Z,3.17
2023-03-21T05:45:01.409Z,3.19
2023-03-21T05:46:01.040Z,3.20
2023-03-21T05:47:01.381Z,3.21
2023-03-21T05:48:01.382Z,3.22
2023-03-21T05:49:01.352Z,3.23
2023-03-21T05:50:01.362Z,3.25
2023-03-21T05:51:01.335Z,3.28
2023-03-21T05:52:01.312Z,3.31
2023-03-21T05:53:02.040Z,3.34
2023-03-21T05:54:01.294Z,3.36
2023-03-21T05:55:01.271Z,3.38
2023-03-21T05:56:01.273Z,3.41
2023-03-21T05:57:01.253Z,3.44
2023-03-21T05:58:00.759Z,3.47
2023-03-21T05:59:00.764Z,3.50
2023-03-21T06:00:00.782Z,3.53
2023-03-21T06:01:01.201Z,3.56
2023-03-21T06:02:00.539Z,3.59
2023-03-21T06:03:01.199Z,3.62
2023-03-21T06:04:01.258Z,3.65
2023-03-21T06:05:00.912Z,3.68
2023-03-21T06:06:01.138Z,3.71
2023-03-21T06:07:01.134Z,3.74
2023-03-21T06:08:01.000Z,3.76
2023-03-21T06:09:01.090Z,3.78
2023-03-21T06:10:01.010Z,3.79
2023-03-21T06:11:01.070Z,3.81
2023-03-21T06:12:01.065Z,3.84
2023-03-21T06:13:01.056Z,3.87
2023-03-21T06:14:01.768Z,3.89
2023-03-21T06:15:02.010Z,3.92
2023-03-21T06:16:01.788Z,3.97
2023-03-21T06:17:01.721Z,4.01
2023-03-21T06:18:00.251Z,4.04
2023-03-21T06:19:00.952Z,4.05
2023-03-21T06:20:00.947Z,4.04
2023-03-21T06:21:01.653Z,4.06
2023-03-21T06:22:01.656Z,4.09
2023-03-21T06:23:01.632Z,4.11
2023-03-21T06:24:01.621Z,4.16
2023-03-21T06:25:01.603Z,4.20
2023-03-21T06:26:01.584Z,4.23
2023-03-21T06:27:03.959Z,4.25
2023-03-21T06:28:00.861Z,4.30
2023-03-21T06:29:01.549Z,4.36
2023-03-21T06:30:01.565Z,4.43
2023-03-21T06:31:01.576Z,4.46
2023-03-21T06:32:01.514Z,4.52
2023-03-21T06:33:00.786Z,4.57
2023-03-21T06:34:00.745Z,4.62
2023-03-21T06:35:00.747Z,4.67
2023-03-21T06:36:00.801Z,4.71
2023-03-21T06:37:00.734Z,4.76
2023-03-21T06:38:00.711Z,4.81
2023-03-21T06:39:00.695Z,4.87
2023-03-21T06:40:00.684Z,4.93
2023-03-21T06:41:00.672Z,4.99
2023-03-21T06:42:00.657Z,5.04
2023-03-21T06:43:00.655Z,5.08
2023-03-21T06:44:00.619Z,5.13
2023-03-21T06:45:00.612Z,5.17
2023-03-21T06:46:00.610Z,5.22
2023-03-21T06:47:00.635Z,5.27
2023-03-21T06:48:01.264Z,5.33
2023-03-21T06:49:00.579Z,5.40
2023-03-21T06:49:59.839Z,5.45
2023-03-21T06:51:00.547Z,5.51
2023-03-21T06:52:00.515Z,5.59
2023-03-21T06:53:00.511Z,5.68
2023-03-21T06:54:00.470Z,5.74
2023-03-21T06:55:00.498Z,5.78
2023-03-21T06:56:00.463Z,5.81
2023-03-21T06:57:00.461Z,5.88
2023-03-21T06:58:00.441Z,5.95
2023-03-21T06:59:00.408Z,6.01
2023-03-21T07:00:00.427Z,6.07
2023-03-21T07:01:00.469Z,6.13
2023-03-21T07:02:00.390Z,6.20
2023-03-21T07:03:00.412Z,6.28
2023-03-21T07:04:00.345Z,6.35
2023-03-21T07:05:00.355Z,6.42
2023-03-21T07:05:59.602Z,6.49
2023-03-21T07:07:00.332Z,6.55
2023-03-21T07:08:00.313Z,6.59
2023-03-21T07:09:00.076Z,6.64
2023-03-21T07:10:00.048Z,6.71
2023-03-21T07:11:00.052Z,6.78
2023-03-21T07:12:00.241Z,6.83
2023-03-21T07:13:00.082Z,6.89
2023-03-21T07:14:00.056Z,6.96
2023-03-21T07:15:00.223Z,7.00
2023-03-21T07:16:00.244Z,7.02
2023-03-21T07:17:00.064Z,7.06
2023-03-21T07:18:00.072Z,7.07
2023-03-21T07:19:00.066Z,7.11
2023-03-21T07:19:59.418Z,7.19
2023-03-21T07:21:00.145Z,7.25
2023-03-21T07:21:59.387Z,7.30
2023-03-21T07:23:00.112Z,7.34
2023-03-21T07:24:00.075Z,7.34
2023-03-21T07:25:05.239Z,7.32
2023-03-21T07:26:01.785Z,7.38
2023-03-21T07:27:00.055Z,7.43
2023-03-21T07:28:00.034Z,7.46
2023-03-21T07:29:00.005Z,7.52
2023-03-21T07:30:00.021Z,7.55
2023-03-21T07:30:59.991Z,7.56
2023-03-21T07:32:00.053Z,7.57
2023-03-21T07:32:59.974Z,7.58
2023-03-21T07:33:59.941Z,7.64
2023-03-21T07:35:01.697Z,7.70
2023-03-21T07:35:59.967Z,7.75
2023-03-21T07:36:59.924Z,7.78
2023-03-21T07:37:59.902Z,7.81
2023-03-21T07:38:59.868Z,7.85
2023-03-21T07:39:59.874Z,7.90
2023-03-21T07:40:59.856Z,7.94
2023-03-21T07:42:00.582Z,8.00
2023-03-21T07:42:59.891Z,8.07
2023-03-21T07:43:59.790Z,8.13
2023-03-21T07:44:59.808Z,8.21
2023-03-21T07:45:59.860Z,8.26
2023-03-21T07:46:59.802Z,8.32
2023-03-21T07:47:59.796Z,8.37
2023-03-21T07:48:59.733Z,8.38
2023-03-21T07:49:59.743Z,8.41
2023-03-21T07:50:59.726Z,8.45
2023-03-21T07:51:59.705Z,8.47
2023-03-21T07:52:59.702Z,8.47
2023-03-21T07:53:59.662Z,8.49
2023-03-21T07:54:59.671Z,8.55
2023-03-21T07:55:59.664Z,8.59
2023-03-21T07:56:59.650Z,8.61
2023-03-21T07:57:59.852Z,8.65
2023-03-21T07:58:59.584Z,8.68
2023-03-21T07:59:59.601Z,8.70
2023-03-21T08:00:59.586Z,8.77
2023-03-21T08:01:59.605Z,8.84
2023-03-21T08:02:59.708Z,8.92
2023-03-21T08:03:59.509Z,9.02
2023-03-21T08:04:59.538Z,9.14
2023-03-21T08:05:59.518Z,9.26
2023-03-21T08:06:59.502Z,9.38
2023-03-21T08:07:59.493Z,9.49
2023-03-21T08:08:59.458Z,9.62
2023-03-21T08:09:59.457Z,9.71
2023-03-21T08:10:59.446Z,9.79
2023-03-21T08:11:59.438Z,9.87
2023-03-21T08:12:59.412Z,9.97
2023-03-21T08:13:59.409Z,10.09
2023-03-21T08:15:01.070Z,10.14
2023-03-21T08:15:58.752Z,10.15
2023-03-21T08:16:59.477Z,10.17
2023-03-21T08:17:58.814Z,10.07
2023-03-21T08:18:59.357Z,10.05
2023-03-21T08:19:59.335Z,10.04
2023-03-21T08:20:59.317Z,10.05
2023-03-21T08:21:58.924Z,10.12
2023-03-21T08:22:58.954Z,10.15
2023-03-21T08:23:59.249Z,10.11
2023-03-21T08:24:59.983Z,10.12
2023-03-21T08:25:59.336Z,10.14
2023-03-21T08:26:59.224Z,10.15
2023-03-21T08:27:59.234Z,10.13
2023-03-21T08:28:59.932Z,10.12
2023-03-21T08:29:58.803Z,10.10
2023-03-21T08:30:59.247Z,10.13
2023-03-21T08:31:59.163Z,10.17
2023-03-21T08:33:01.216Z,10.20
2023-03-21T08:33:59.870Z,10.22
2023-03-21T08:34:59.127Z,10.23
2023-03-21T08:35:59.852Z,10.25
2023-03-21T08:36:59.822Z,10.26
2023-03-21T08:37:59.090Z,10.27
2023-03-21T08:38:59.778Z,10.29
2023-03-21T08:39:59.078Z,10.34
2023-03-21T08:41:00.281Z,10.40
2023-03-21T08:41:59.737Z,10.47
2023-03-21T08:42:59.738Z,10.54
2023-03-21T08:43:59.727Z,10.61
2023-03-21T08:44:59.704Z,10.69
2023-03-21T08:45:59.728Z,10.78
2023-03-21T08:46:59.667Z,10.86
2023-03-21T08:47:59.714Z,10.90
2023-03-21T08:48:59.654Z,10.94
2023-03-21T08:49:59.633Z,11.00
2023-03-21T08:50:59.631Z,11.08
2023-03-21T08:51:58.894Z,11.14
2023-03-21T08:52:58.890Z,11.19
2023-03-21T08:53:58.843Z,11.28
2023-03-21T08:54:58.852Z,11.35
2023-03-21T08:55:58.845Z,11.38
2023-03-21T08:56:58.848Z,11.37
2023-03-21T08:57:58.807Z,11.32
2023-03-21T08:58:58.784Z,11.38
2023-03-21T08:59:58.751Z,11.44
2023-03-21T09:00:58.773Z,11.49
2023-03-21T09:01:59.552Z,11.57
2023-03-21T09:02:58.765Z,11.68
2023-03-21T09:03:58.720Z,11.74
2023-03-21T09:04:58.768Z,11.82
2023-03-21T09:05:58.690Z,11.91
2023-03-21T09:06:58.680Z,11.98
2023-03-21T09:07:58.676Z,11.91
2023-03-21T09:08:58.880Z,11.75
2023-03-21T09:10:19.073Z,11.60
2023-03-21T09:10:59.630Z,11.52
2023-03-21T09:11:58.609Z,11.58
2023-03-21T09:12:58.600Z,11.67
2023-03-21T09:13:58.601Z,11.78
2023-03-21T09:14:58.553Z,11.80
2023-03-21T09:15:58.257Z,11.79
2023-03-21T09:16:58.556Z,11.77
2023-03-21T09:17:58.542Z,11.74
2023-03-21T09:18:58.516Z,11.74
2023-03-21T09:19:58.486Z,11.85
2023-03-21T09:20:58.496Z,11.92
2023-03-21T09:21:58.476Z,11.94
2023-03-21T09:22:58.469Z,11.97
2023-03-21T09:23:58.443Z,12.01
2023-03-21T09:24:58.415Z,12.10
2023-03-21T09:25:58.416Z,12.25
2023-03-21T09:26:58.398Z,12.47
2023-03-21T09:27:58.403Z,12.58
2023-03-21T09:28:59.094Z,12.66
2023-03-21T09:29:58.154Z,12.74
2023-03-21T09:30:58.211Z,12.85
2023-03-21T09:31:58.342Z,12.85
2023-03-21T09:32:58.325Z,12.95
2023-03-21T09:33:58.187Z,13.11
2023-03-21T09:34:58.281Z,13.14
2023-03-21T09:35:58.288Z,13.20
2023-03-21T09:36:58.163Z,13.06
2023-03-21T09:37:58.171Z,13.03
2023-03-21T09:38:58.243Z,13.30
2023-03-21T09:39:58.203Z,13.72
2023-03-21T09:40:58.218Z,14.23
2023-03-21T09:41:58.159Z,14.39
2023-03-21T09:42:59.180Z,14.48
2023-03-21T09:43:59.169Z,14.80
2023-03-21T09:44:57.489Z,14.99
2023-03-21T09:45:58.381Z,14.88
2023-03-21T09:46:58.173Z,15.12
2023-03-21T09:47:58.164Z,15.51
2023-03-21T09:48:58.116Z,15.68
2023-03-21T09:50:07.604Z,15.81
2023-03-21T09:50:59.812Z,16.29
2023-03-21T09:51:58.068Z,16.82
2023-03-21T09:52:58.056Z,17.41
2023-03-21T09:53:58.053Z,17.86
2023-03-21T09:54:58.031Z,17.84
2023-03-21T09:55:58.009Z,18.07
2023-03-21T09:56:57.997Z,18.90
2023-03-21T09:57:57.987Z,19.46
2023-03-21T09:58:57.968Z,19.47
2023-03-21T09:59:57.936Z,19.48
2023-03-21T10:00:57.967Z,19.22
2023-03-21T10:01:57.936Z,18.53
2023-03-21T10:02:57.916Z,18.23
2023-03-21T10:03:57.907Z,17.86
2023-03-21T10:04:57.883Z,17.68
2023-03-21T10:05:57.897Z,17.39
2023-03-21T10:06:58.093Z,17.01
2023-03-21T10:07:57.852Z,16.65
2023-03-21T10:08:57.834Z,16.56
2023-03-21T10:09:57.803Z,16.70
2023-03-21T10:10:57.819Z,16.90
2023-03-21T10:11:57.801Z,16.85
2023-03-21T10:12:57.774Z,16.94
2023-03-21T10:13:57.776Z,17.00
2023-03-21T10:14:58.867Z,16.67
2023-03-21T10:15:57.761Z,16.59
2023-03-21T10:16:57.808Z,16.73
2023-03-21T10:17:57.941Z,16.98
2023-03-21T10:18:57.727Z,17.24
2023-03-21T10:19:57.662Z,17.52
2023-03-21T10:20:57.675Z,17.57
2023-03-21T10:22:03.067Z,17.76
2023-03-21T10:22:58.645Z,18.06
2023-03-21T10:23:57.622Z,17.90
2023-03-21T10:24:57.604Z,17.59
2023-03-21T10:25:57.683Z,17.43
2023-03-21T10:26:57.599Z,17.34
2023-03-21T10:27:57.575Z,17.13
2023-03-21T10:28:57.791Z,16.63
2023-03-21T10:29:57.556Z,16.42
2023-03-21T10:30:57.528Z,16.09
2023-03-21T10:31:57.600Z,16.07
2023-03-21T10:32:59.524Z,15.89
2023-03-21T10:33:57.486Z,15.66
2023-03-21T10:35:57.514Z,15.90
2023-03-21T10:36:57.462Z,15.80
2023-03-21T10:37:57.438Z,15.78
2023-03-21T10:38:57.017Z,15.66
2023-03-21T10:39:57.637Z,15.50
2023-03-21T10:40:57.078Z,15.51
2023-03-21T10:41:57.387Z,15.54
2023-03-21T10:42:57.133Z,15.67
2023-03-21T10:43:57.363Z,15.73
2023-03-21T10:44:57.398Z,15.77
2023-03-21T10:45:57.469Z,15.68
2023-03-21T10:46:57.643Z,15.61
2023-03-21T10:47:57.455Z,15.46
2023-03-21T10:48:56.894Z,15.12
2023-03-21T10:50:07.164Z,14.97
2023-03-21T10:50:59.070Z,14.96
2023-03-21T10:51:57.241Z,15.02
2023-03-21T10:52:57.944Z,15.04
2023-03-21T10:53:57.227Z,15.03
2023-03-21T10:54:57.916Z,15.00
2023-03-21T10:55:57.916Z,14.93
2023-03-21T10:56:57.201Z,14.87
2023-03-21T10:57:57.885Z,14.78
2023-03-21T10:58:57.861Z,14.75
2023-03-21T10:59:57.853Z,14.65
2023-03-21T11:00:58.007Z,14.57
2023-03-21T11:01:57.870Z,14.46
2023-03-21T11:02:57.814Z,14.38
2023-03-21T11:03:57.814Z,14.20
2023-03-21T11:04:57.069Z,14.06
2023-03-21T11:05:57.039Z,13.98
2023-03-21T11:06:57.034Z,13.81
2023-03-21T11:07:57.744Z,13.66
2023-03-21T11:08:57.743Z,13.64
2023-03-21T11:09:57.722Z,13.68
2023-03-21T11:10:57.722Z,13.77
2023-03-21T11:11:56.971Z,13.85
2023-03-21T11:12:57.692Z,13.90
2023-03-21T11:13:56.956Z,13.95
2023-03-21T11:14:56.929Z,13.99
2023-03-21T11:15:56.903Z,14.04
2023-03-21T11:16:56.913Z,14.05
2023-03-21T11:17:56.889Z,14.09
2023-03-21T11:18:56.898Z,14.14
2023-03-21T11:19:56.875Z,14.18
2023-03-21T11:20:56.141Z,14.12
2023-03-21T11:21:56.845Z,14.02
2023-03-21T11:22:56.832Z,13.98
2023-03-21T11:23:57.338Z,13.98
2023-03-21T11:24:56.781Z,14.02
2023-03-21T11:25:56.765Z,14.07
2023-03-21T11:26:56.779Z,14.08
2023-03-21T11:27:56.764Z,14.06
2023-03-21T11:28:56.041Z,13.98
2023-03-21T11:29:56.737Z,13.96
2023-03-21T11:30:56.741Z,14.02
2023-03-21T11:31:56.715Z,14.10
2023-03-21T11:32:56.680Z,14.15
2023-03-21T11:33:56.673Z,14.18
2023-03-21T11:34:56.891Z,14.06
2023-03-21T11:35:56.637Z,13.95
2023-03-21T11:36:56.633Z,13.97
2023-03-21T11:37:56.673Z,14.06
2023-03-21T11:38:56.598Z,14.14
2023-03-21T11:39:56.589Z,14.23
2023-03-21T11:40:56.566Z,14.28
2023-03-21T11:41:56.561Z,14.29
2023-03-21T11:42:56.584Z,14.25
2023-03-21T11:43:56.537Z,14.20
2023-03-21T11:44:56.259Z,14.14
2023-03-21T11:45:56.768Z,14.14
2023-03-21T11:46:56.258Z,14.14
2023-03-21T11:47:56.316Z,14.14
2023-03-21T11:48:56.460Z,14.18
2023-03-21T11:50:04.659Z,14.18
2023-03-21T11:50:57.117Z,14.22
2023-03-21T11:51:56.425Z,14.25
2023-03-21T11:52:56.269Z,14.23
2023-03-21T11:53:56.397Z,14.14
2023-03-21T11:54:56.386Z,13.98
2023-03-21T11:55:56.385Z,13.78
2023-03-21T11:56:56.273Z,13.60
2023-03-21T11:57:58.030Z,13.52
2023-03-21T11:58:56.337Z,13.46
2023-03-21T11:59:56.312Z,13.30
2023-03-21T12:00:56.279Z,13.14
2023-03-21T12:01:57.020Z,13.01
2023-03-21T12:02:57.060Z,12.88
2023-03-21T12:03:57.027Z,12.82
2023-03-21T12:04:56.251Z,12.77
2023-03-21T12:05:56.231Z,12.72
2023-03-21T12:06:56.196Z,12.72
2023-03-21T12:07:56.210Z,12.74
2023-03-21T12:08:56.198Z,12.73
2023-03-21T12:09:56.183Z,12.74
2023-03-21T12:10:56.161Z,12.73
2023-03-21T12:11:56.120Z,12.67
2023-03-21T12:12:56.130Z,12.65
2023-03-21T12:13:56.120Z,12.68
2023-03-21T12:14:56.116Z,12.66
2023-03-21T12:15:56.150Z,12.62
2023-03-21T12:16:56.046Z,12.60
2023-03-21T12:17:56.068Z,12.64
2023-03-21T12:18:56.058Z,12.68
2023-03-21T12:19:56.045Z,12.69
2023-03-21T12:20:56.024Z,12.71
2023-03-21T12:21:56.005Z,12.75
2023-03-21T12:22:56.029Z,12.77
2023-03-21T12:23:55.983Z,12.74
2023-03-21T12:24:55.992Z,12.71
2023-03-21T12:25:55.962Z,12.71
2023-03-21T12:26:57.479Z,12.69
2023-03-21T12:27:55.939Z,12.73
2023-03-21T12:28:56.628Z,12.84
2023-03-21T12:29:55.908Z,12.85
2023-03-21T12:30:55.954Z,12.82
2023-03-21T12:31:55.856Z,12.87
2023-03-21T12:32:55.861Z,12.98
2023-03-21T12:33:55.846Z,13.13
2023-03-21T12:34:55.832Z,13.21
2023-03-21T12:35:55.831Z,13.27
2023-03-21T12:36:55.779Z,13.32
2023-03-21T12:37:57.838Z,13.34
2023-03-21T12:38:55.765Z,13.29
2023-03-21T12:39:55.767Z,13.27
2023-03-21T12:40:55.307Z,13.34
2023-03-21T12:41:55.714Z,13.47
2023-03-21T12:42:55.719Z,13.50
2023-03-21T12:43:55.718Z,13.51
2023-03-21T12:44:55.686Z,13.55
2023-03-21T12:45:55.686Z,13.54
2023-03-21T12:46:55.702Z,13.58
2023-03-21T12:47:55.688Z,13.62
2023-03-21T12:48:55.309Z,13.65
2023-03-21T12:49:55.630Z,13.69
2023-03-21T12:50:55.602Z,13.64
2023-03-21T12:51:55.574Z,13.71
2023-03-21T12:52:54.932Z,13.81
2023-03-21T12:53:54.956Z,13.73
2023-03-21T12:54:55.543Z,13.73
2023-03-21T12:55:55.021Z,13.79
2023-03-21T12:56:55.504Z,13.92
2023-03-21T12:57:57.828Z,14.01
2023-03-21T12:58:55.498Z,14.11
2023-03-21T12:59:55.481Z,14.22
2023-03-21T13:00:55.155Z,14.31
2023-03-21T13:01:55.182Z,14.39
2023-03-21T13:02:55.211Z,14.43
2023-03-21T13:03:55.259Z,14.45
2023-03-21T13:04:55.271Z,14.41
2023-03-21T13:05:55.389Z,14.34
2023-03-21T13:06:55.367Z,14.23
2023-03-21T13:07:55.365Z,14.00
2023-03-21T13:08:55.334Z,13.89